sensor_id;sensor_type;location;lat;lon;timestamp;P1;durP1;ratioP1;P2;durP2;ratioP2
10491;SDS011;5293;51.464;-2.566;2024-02-14T00:01:34;18.60;;;3.30;;
10491;SDS011;5293;51.464;-2.566;2024-02-14T00:04:01;10.93;;;2.57;;
10491;SDS011;5293;51.464;-2.566;2024-02-14T00:06:28;13.87;;;3.30;;
10491;SDS011;5293;51.464;-2.566;2024-02-14T00:08:53;22.07;;;3.53;;
10491;SDS011;5293;51.464;-2.566;2024-02-14T00:11:19;14.93;;;2.97;;
10491;SDS011;5293;51.464;-2.566;2024-02-14T00:13:45;19.90;;;3.40;;
10491;SDS011;5293;51.464;-2.566;2024-02-14T00:16:10;18.63;;;3.57;;
10491;SDS011;5293;51.464;-2.566;2024-02-14T00:18:36;16.27;;;3.50;;
10491;SDS011;5293;51.464;-2.566;2024-02-14T00:21:01;11.93;;;2.60;;
10491;SDS011;5293;51.464;-2.566;2024-02-14T00:23:27;8.83;;;2.93;;
10491;SDS011;5293;51.464;-2.566;2024-02-14T00:25:53;12.03;;;2.93;;
10491;SDS011;5293;51.464;-2.566;2024-02-14T00:28:18;10.57;;;2.87;;
10491;SDS011;5293;51.464;-2.566;2024-02-14T00:30:44;17.70;;;2.87;;
10491;SDS011;5293;51.464;-2.566;2024-02-14T00:33:10;15.57;;;3.03;;
10491;SDS011;5293;51.464;-2.566;2024-02-14T00:35:36;14.53;;;2.70;;
10491;SDS011;5293;51.464;-2.566;2024-02-14T00:38:02;14.30;;;2.97;;
10491;SDS011;5293;51.464;-2.566;2024-02-14T00:40:27;9.53;;;3.30;;
10491;SDS011;5293;51.464;-2.566;2024-02-14T00:42:53;15.23;;;2.83;;
10491;SDS011;5293;51.464;-2.566;2024-02-14T00:45:19;13.30;;;3.03;;
10491;SDS011;5293;51.464;-2.566;2024-02-14T00:47:44;13.30;;;2.63;;
10491;SDS011;5293;51.464;-2.566;2024-02-14T00:50:10;15.10;;;2.80;;
10491;SDS011;5293;51.464;-2.566;2024-02-14T00:52:38;15.53;;;3.30;;
10491;SDS011;5293;51.464;-2.566;2024-02-14T00:55:04;12.40;;;2.93;;
10491;SDS011;5293;51.464;-2.566;2024-02-14T00:57:31;21.83;;;3.00;;
10491;SDS011;5293;51.464;-2.566;2024-02-14T00:59:57;13.17;;;3.47;;
10491;SDS011;5293;51.464;-2.566;2024-02-14T01:02:23;17.33;;;3.10;;
10491;SDS011;5293;51.464;-2.566;2024-02-14T01:04:49;15.53;;;3.50;;
10491;SDS011;5293;51.464;-2.566;2024-02-14T01:07:14;13.23;;;3.27;;
10491;SDS011;5293;51.464;-2.566;2024-02-14T01:09:40;15.70;;;2.67;;
10491;SDS011;5293;51.464;-2.566;2024-02-14T01:12:06;9.33;;;2.73;;
10491;SDS011;5293;51.464;-2.566;2024-02-14T01:14:31;12.77;;;2.60;;
10491;SDS011;5293;51.464;-2.566;2024-02-14T01:16:57;14.33;;;2.73;;
10491;SDS011;5293;51.464;-2.566;2024-02-14T01:19:23;11.80;;;2.80;;
10491;SDS011;5293;51.464;-2.566;2024-02-14T01:21:50;13.67;;;2.57;;
10491;SDS011;5293;51.464;-2.566;2024-02-14T01:24:16;11.07;;;2.93;;
10491;SDS011;5293;51.464;-2.566;2024-02-14T01:26:42;9.60;;;2.33;;
10491;SDS011;5293;51.464;-2.566;2024-02-14T01:29:07;10.93;;;2.30;;
10491;SDS011;5293;51.464;-2.566;2024-02-14T01:31:34;8.50;;;2.37;;
10491;SDS011;5293;51.464;-2.566;2024-02-14T01:34:00;11.37;;;2.47;;
10491;SDS011;5293;51.464;-2.566;2024-02-14T01:36:29;9.70;;;2.20;;
10491;SDS011;5293;51.464;-2.566;2024-02-14T01:38:55;6.93;;;2.20;;
10491;SDS011;5293;51.464;-2.566;2024-02-14T01:41:21;7.23;;;1.80;;
10491;SDS011;5293;51.464;-2.566;2024-02-14T01:43:47;8.13;;;2.00;;
10491;SDS011;5293;51.464;-2.566;2024-02-14T01:46:13;9.27;;;2.20;;
10491;SDS011;5293;51.464;-2.566;2024-02-14T01:48:39;3.70;;;1.40;;
10491;SDS011;5293;51.464;-2.566;2024-02-14T01:51:06;7.33;;;1.60;;
10491;SDS011;5293;51.464;-2.566;2024-02-14T01:53:36;3.70;;;1.37;;
10491;SDS011;5293;51.464;-2.566;2024-02-14T01:56:03;12.80;;;1.90;;
10491;SDS011;5293;51.464;-2.566;2024-02-14T01:58:30;7.33;;;1.60;;
10491;SDS011;5293;51.464;-2.566;2024-02-14T02:00:56;6.20;;;1.67;;
10491;SDS011;5293;51.464;-2.566;2024-02-14T02:03:24;7.73;;;1.50;;
10491;SDS011;5293;51.464;-2.566;2024-02-14T02:05:50;4.47;;;1.70;;
10491;SDS011;5293;51.464;-2.566;2024-02-14T02:08:17;8.80;;;1.63;;
10491;SDS011;5293;51.464;-2.566;2024-02-14T02:10:43;6.03;;;1.30;;
10491;SDS011;5293;51.464;-2.566;2024-02-14T02:13:09;4.83;;;1.73;;
10491;SDS011;5293;51.464;-2.566;2024-02-14T02:15:34;4.97;;;1.57;;
10491;SDS011;5293;51.464;-2.566;2024-02-14T02:18:00;4.23;;;1.43;;
10491;SDS011;5293;51.464;-2.566;2024-02-14T02:20:31;4.70;;;1.63;;
10491;SDS011;5293;51.464;-2.566;2024-02-14T02:22:57;2.80;;;1.20;;
10491;SDS011;5293;51.464;-2.566;2024-02-14T02:25:23;3.40;;;1.17;;
10491;SDS011;5293;51.464;-2.566;2024-02-14T02:27:50;4.13;;;1.53;;
10491;SDS011;5293;51.464;-2.566;2024-02-14T02:30:16;6.47;;;1.63;;
10491;SDS011;5293;51.464;-2.566;2024-02-14T02:32:42;2.73;;;1.10;;
10491;SDS011;5293;51.464;-2.566;2024-02-14T02:35:08;5.13;;;1.30;;
10491;SDS011;5293;51.464;-2.566;2024-02-14T02:37:35;5.73;;;1.40;;
10491;SDS011;5293;51.464;-2.566;2024-02-14T02:40:00;6.40;;;1.93;;
10491;SDS011;5293;51.464;-2.566;2024-02-14T02:42:26;7.00;;;1.20;;
10491;SDS011;5293;51.464;-2.566;2024-02-14T02:44:52;5.77;;;1.90;;
10491;SDS011;5293;51.464;-2.566;2024-02-14T02:47:18;4.33;;;1.60;;
10491;SDS011;5293;51.464;-2.566;2024-02-14T02:49:44;4.70;;;1.30;;
10491;SDS011;5293;51.464;-2.566;2024-02-14T02:52:12;6.63;;;1.60;;
10491;SDS011;5293;51.464;-2.566;2024-02-14T02:54:38;5.77;;;1.27;;
10491;SDS011;5293;51.464;-2.566;2024-02-14T02:57:09;5.37;;;1.53;;
10491;SDS011;5293;51.464;-2.566;2024-02-14T02:59:38;3.07;;;0.90;;
10491;SDS011;5293;51.464;-2.566;2024-02-14T03:02:07;5.60;;;1.20;;
10491;SDS011;5293;51.464;-2.566;2024-02-14T03:04:35;1.67;;;1.03;;
10491;SDS011;5293;51.464;-2.566;2024-02-14T03:07:00;5.00;;;1.20;;
10491;SDS011;5293;51.464;-2.566;2024-02-14T03:09:31;1.83;;;1.00;;
10491;SDS011;5293;51.464;-2.566;2024-02-14T03:12:01;4.60;;;1.10;;
10491;SDS011;5293;51.464;-2.566;2024-02-14T03:14:31;4.70;;;1.13;;
10491;SDS011;5293;51.464;-2.566;2024-02-14T03:17:07;2.60;;;1.17;;
10491;SDS011;5293;51.464;-2.566;2024-02-14T03:19:35;4.20;;;1.20;;
10491;SDS011;5293;51.464;-2.566;2024-02-14T03:22:03;4.47;;;0.90;;
10491;SDS011;5293;51.464;-2.566;2024-02-14T03:24:30;5.60;;;1.63;;
10491;SDS011;5293;51.464;-2.566;2024-02-14T03:26:56;5.23;;;1.50;;
10491;SDS011;5293;51.464;-2.566;2024-02-14T03:29:22;6.70;;;1.57;;
10491;SDS011;5293;51.464;-2.566;2024-02-14T03:31:48;4.07;;;1.20;;
10491;SDS011;5293;51.464;-2.566;2024-02-14T03:34:13;4.07;;;1.00;;
10491;SDS011;5293;51.464;-2.566;2024-02-14T03:36:39;4.03;;;1.20;;
10491;SDS011;5293;51.464;-2.566;2024-02-14T03:39:05;6.50;;;1.20;;
10491;SDS011;5293;51.464;-2.566;2024-02-14T03:41:31;8.30;;;1.50;;
10491;SDS011;5293;51.464;-2.566;2024-02-14T03:43:57;7.63;;;1.80;;
10491;SDS011;5293;51.464;-2.566;2024-02-14T03:46:26;3.80;;;1.20;;
10491;SDS011;5293;51.464;-2.566;2024-02-14T03:48:52;6.07;;;1.30;;
10491;SDS011;5293;51.464;-2.566;2024-02-14T03:51:24;4.50;;;1.53;;
10491;SDS011;5293;51.464;-2.566;2024-02-14T03:53:49;10.07;;;1.73;;
10491;SDS011;5293;51.464;-2.566;2024-02-14T03:56:16;3.37;;;1.07;;
10491;SDS011;5293;51.464;-2.566;2024-02-14T03:58:42;1.50;;;1.20;;
10491;SDS011;5293;51.464;-2.566;2024-02-14T04:01:08;3.10;;;1.03;;
10491;SDS011;5293;51.464;-2.566;2024-02-14T04:03:33;5.73;;;1.57;;
10491;SDS011;5293;51.464;-2.566;2024-02-14T04:06:00;4.73;;;1.40;;
10491;SDS011;5293;51.464;-2.566;2024-02-14T04:08:25;2.40;;;0.97;;
10491;SDS011;5293;51.464;-2.566;2024-02-14T04:10:51;5.30;;;1.30;;
10491;SDS011;5293;51.464;-2.566;2024-02-14T04:13:19;5.50;;;1.57;;
10491;SDS011;5293;51.464;-2.566;2024-02-14T04:15:45;9.87;;;1.37;;
10491;SDS011;5293;51.464;-2.566;2024-02-14T04:18:12;4.30;;;1.20;;
10491;SDS011;5293;51.464;-2.566;2024-02-14T04:20:38;7.43;;;1.30;;
10491;SDS011;5293;51.464;-2.566;2024-02-14T04:23:03;8.07;;;1.23;;
10491;SDS011;5293;51.464;-2.566;2024-02-14T04:25:32;12.20;;;1.87;;
10491;SDS011;5293;51.464;-2.566;2024-02-14T04:27:59;6.63;;;1.43;;
10491;SDS011;5293;51.464;-2.566;2024-02-14T04:30:25;6.50;;;1.57;;
10491;SDS011;5293;51.464;-2.566;2024-02-14T04:32:50;10.20;;;1.60;;
10491;SDS011;5293;51.464;-2.566;2024-02-14T04:35:19;5.50;;;1.30;;
10491;SDS011;5293;51.464;-2.566;2024-02-14T04:37:45;8.87;;;1.90;;
10491;SDS011;5293;51.464;-2.566;2024-02-14T04:40:13;4.83;;;1.10;;
10491;SDS011;5293;51.464;-2.566;2024-02-14T04:42:39;7.30;;;1.57;;
10491;SDS011;5293;51.464;-2.566;2024-02-14T04:45:05;6.33;;;2.10;;
10491;SDS011;5293;51.464;-2.566;2024-02-14T04:47:31;5.10;;;1.77;;
10491;SDS011;5293;51.464;-2.566;2024-02-14T04:49:57;3.53;;;1.57;;
10491;SDS011;5293;51.464;-2.566;2024-02-14T04:52:23;8.67;;;1.83;;
10491;SDS011;5293;51.464;-2.566;2024-02-14T04:54:49;7.23;;;1.57;;
10491;SDS011;5293;51.464;-2.566;2024-02-14T04:57:15;5.60;;;1.73;;
10491;SDS011;5293;51.464;-2.566;2024-02-14T04:59:40;6.03;;;1.80;;
10491;SDS011;5293;51.464;-2.566;2024-02-14T05:02:06;5.47;;;1.63;;
10491;SDS011;5293;51.464;-2.566;2024-02-14T05:04:32;7.60;;;1.80;;
10491;SDS011;5293;51.464;-2.566;2024-02-14T05:07:00;6.03;;;1.70;;
10491;SDS011;5293;51.464;-2.566;2024-02-14T05:09:25;6.23;;;1.40;;
10491;SDS011;5293;51.464;-2.566;2024-02-14T05:11:51;9.37;;;1.67;;
10491;SDS011;5293;51.464;-2.566;2024-02-14T05:14:17;7.97;;;1.83;;
10491;SDS011;5293;51.464;-2.566;2024-02-14T05:16:43;7.60;;;1.53;;
10491;SDS011;5293;51.464;-2.566;2024-02-14T05:19:08;5.80;;;1.87;;
10491;SDS011;5293;51.464;-2.566;2024-02-14T05:21:35;8.27;;;1.70;;
10491;SDS011;5293;51.464;-2.566;2024-02-14T05:24:01;7.87;;;1.57;;
10491;SDS011;5293;51.464;-2.566;2024-02-14T05:26:26;9.53;;;1.83;;
10491;SDS011;5293;51.464;-2.566;2024-02-14T05:28:52;7.57;;;1.37;;
10491;SDS011;5293;51.464;-2.566;2024-02-14T05:31:18;5.27;;;1.40;;
10491;SDS011;5293;51.464;-2.566;2024-02-14T05:33:43;7.77;;;1.63;;
10491;SDS011;5293;51.464;-2.566;2024-02-14T05:36:09;8.60;;;1.80;;
10491;SDS011;5293;51.464;-2.566;2024-02-14T05:38:35;8.53;;;1.50;;
10491;SDS011;5293;51.464;-2.566;2024-02-14T05:41:01;4.50;;;1.40;;
10491;SDS011;5293;51.464;-2.566;2024-02-14T05:43:26;8.10;;;1.33;;
10491;SDS011;5293;51.464;-2.566;2024-02-14T05:45:52;5.30;;;1.07;;
10491;SDS011;5293;51.464;-2.566;2024-02-14T05:48:19;5.27;;;1.43;;
10491;SDS011;5293;51.464;-2.566;2024-02-14T05:50:45;6.47;;;1.30;;
10491;SDS011;5293;51.464;-2.566;2024-02-14T05:53:10;1.33;;;1.10;;
10491;SDS011;5293;51.464;-2.566;2024-02-14T05:55:37;3.73;;;1.07;;
10491;SDS011;5293;51.464;-2.566;2024-02-14T05:58:03;4.90;;;1.10;;
10491;SDS011;5293;51.464;-2.566;2024-02-14T06:00:29;3.10;;;0.73;;
10491;SDS011;5293;51.464;-2.566;2024-02-14T06:02:55;1.53;;;0.60;;
10491;SDS011;5293;51.464;-2.566;2024-02-14T06:05:21;2.37;;;0.77;;
10491;SDS011;5293;51.464;-2.566;2024-02-14T06:07:47;2.10;;;0.67;;
10491;SDS011;5293;51.464;-2.566;2024-02-14T06:10:13;1.40;;;1.07;;
10491;SDS011;5293;51.464;-2.566;2024-02-14T06:12:39;1.00;;;0.50;;
10491;SDS011;5293;51.464;-2.566;2024-02-14T06:15:06;3.03;;;0.90;;
10491;SDS011;5293;51.464;-2.566;2024-02-14T06:17:32;3.73;;;0.80;;
10491;SDS011;5293;51.464;-2.566;2024-02-14T06:19:58;3.03;;;0.70;;
10491;SDS011;5293;51.464;-2.566;2024-02-14T06:22:25;2.23;;;0.60;;
10491;SDS011;5293;51.464;-2.566;2024-02-14T06:24:51;3.37;;;0.80;;
10491;SDS011;5293;51.464;-2.566;2024-02-14T06:27:16;2.73;;;0.63;;
10491;SDS011;5293;51.464;-2.566;2024-02-14T06:29:45;2.47;;;0.63;;
10491;SDS011;5293;51.464;-2.566;2024-02-14T06:32:14;0.93;;;0.83;;
10491;SDS011;5293;51.464;-2.566;2024-02-14T06:34:40;2.90;;;0.63;;
10491;SDS011;5293;51.464;-2.566;2024-02-14T06:37:05;2.40;;;0.90;;
10491;SDS011;5293;51.464;-2.566;2024-02-14T06:39:31;2.23;;;0.70;;
10491;SDS011;5293;51.464;-2.566;2024-02-14T06:41:57;3.13;;;0.90;;
10491;SDS011;5293;51.464;-2.566;2024-02-14T06:44:23;1.73;;;0.83;;
10491;SDS011;5293;51.464;-2.566;2024-02-14T06:46:49;3.93;;;0.80;;
10491;SDS011;5293;51.464;-2.566;2024-02-14T06:49:15;3.53;;;0.80;;
10491;SDS011;5293;51.464;-2.566;2024-02-14T06:51:41;3.57;;;0.97;;
10491;SDS011;5293;51.464;-2.566;2024-02-14T06:54:07;2.00;;;0.80;;
10491;SDS011;5293;51.464;-2.566;2024-02-14T06:56:33;2.40;;;0.83;;
10491;SDS011;5293;51.464;-2.566;2024-02-14T06:58:59;1.00;;;0.73;;
10491;SDS011;5293;51.464;-2.566;2024-02-14T07:01:28;3.43;;;1.13;;
10491;SDS011;5293;51.464;-2.566;2024-02-14T07:03:54;5.00;;;0.97;;
10491;SDS011;5293;51.464;-2.566;2024-02-14T07:06:20;2.97;;;0.80;;
10491;SDS011;5293;51.464;-2.566;2024-02-14T07:08:46;0.93;;;0.50;;
10491;SDS011;5293;51.464;-2.566;2024-02-14T07:11:12;1.97;;;0.97;;
10491;SDS011;5293;51.464;-2.566;2024-02-14T07:13:38;3.97;;;1.40;;
10491;SDS011;5293;51.464;-2.566;2024-02-14T07:16:04;3.53;;;1.13;;
10491;SDS011;5293;51.464;-2.566;2024-02-14T07:18:30;5.83;;;1.20;;
10491;SDS011;5293;51.464;-2.566;2024-02-14T07:20:55;3.67;;;1.13;;
10491;SDS011;5293;51.464;-2.566;2024-02-14T07:23:21;4.53;;;0.93;;
10491;SDS011;5293;51.464;-2.566;2024-02-14T07:25:47;1.83;;;0.70;;
10491;SDS011;5293;51.464;-2.566;2024-02-14T07:28:13;4.10;;;0.77;;
10491;SDS011;5293;51.464;-2.566;2024-02-14T07:30:38;2.80;;;0.70;;
10491;SDS011;5293;51.464;-2.566;2024-02-14T07:33:04;4.30;;;0.90;;
10491;SDS011;5293;51.464;-2.566;2024-02-14T07:35:29;1.43;;;0.70;;
10491;SDS011;5293;51.464;-2.566;2024-02-14T07:37:55;2.63;;;0.70;;
10491;SDS011;5293;51.464;-2.566;2024-02-14T07:40:21;4.00;;;1.00;;
10491;SDS011;5293;51.464;-2.566;2024-02-14T07:42:47;2.90;;;2.70;;
10491;SDS011;5293;51.464;-2.566;2024-02-14T07:45:14;2.20;;;1.63;;
10491;SDS011;5293;51.464;-2.566;2024-02-14T07:47:40;1.80;;;0.50;;
10491;SDS011;5293;51.464;-2.566;2024-02-14T07:50:06;1.23;;;0.60;;
10491;SDS011;5293;51.464;-2.566;2024-02-14T07:52:32;0.60;;;0.40;;
10491;SDS011;5293;51.464;-2.566;2024-02-14T07:54:58;0.77;;;0.43;;
10491;SDS011;5293;51.464;-2.566;2024-02-14T07:57:26;1.00;;;0.60;;
10491;SDS011;5293;51.464;-2.566;2024-02-14T07:59:53;1.20;;;0.57;;
10491;SDS011;5293;51.464;-2.566;2024-02-14T08:02:21;0.43;;;0.40;;
10491;SDS011;5293;51.464;-2.566;2024-02-14T08:04:47;2.90;;;0.60;;
10491;SDS011;5293;51.464;-2.566;2024-02-14T08:07:12;1.10;;;1.10;;
10491;SDS011;5293;51.464;-2.566;2024-02-14T08:09:38;2.10;;;0.87;;
10491;SDS011;5293;51.464;-2.566;2024-02-14T08:12:04;2.33;;;0.80;;
10491;SDS011;5293;51.464;-2.566;2024-02-14T08:14:31;0.50;;;0.50;;
10491;SDS011;5293;51.464;-2.566;2024-02-14T08:16:57;0.57;;;0.57;;
10491;SDS011;5293;51.464;-2.566;2024-02-14T08:19:23;2.07;;;0.67;;
10491;SDS011;5293;51.464;-2.566;2024-02-14T08:21:49;0.47;;;0.47;;
10491;SDS011;5293;51.464;-2.566;2024-02-14T08:24:17;3.07;;;0.70;;
10491;SDS011;5293;51.464;-2.566;2024-02-14T08:26:43;1.47;;;0.60;;
10491;SDS011;5293;51.464;-2.566;2024-02-14T08:29:08;1.03;;;0.40;;
10491;SDS011;5293;51.464;-2.566;2024-02-14T08:31:36;0.67;;;0.50;;
10491;SDS011;5293;51.464;-2.566;2024-02-14T08:34:02;0.63;;;0.60;;
10491;SDS011;5293;51.464;-2.566;2024-02-14T08:36:28;1.13;;;0.50;;
10491;SDS011;5293;51.464;-2.566;2024-02-14T08:38:53;1.37;;;0.60;;
10491;SDS011;5293;51.464;-2.566;2024-02-14T08:41:19;0.93;;;0.73;;
10491;SDS011;5293;51.464;-2.566;2024-02-14T08:43:45;1.20;;;0.70;;
10491;SDS011;5293;51.464;-2.566;2024-02-14T08:46:10;1.67;;;0.73;;
10491;SDS011;5293;51.464;-2.566;2024-02-14T08:48:36;1.50;;;0.60;;
10491;SDS011;5293;51.464;-2.566;2024-02-14T08:51:07;1.40;;;0.70;;
10491;SDS011;5293;51.464;-2.566;2024-02-14T08:53:37;3.17;;;0.70;;
10491;SDS011;5293;51.464;-2.566;2024-02-14T08:56:07;1.30;;;0.60;;
10491;SDS011;5293;51.464;-2.566;2024-02-14T08:58:44;0.70;;;0.60;;
10491;SDS011;5293;51.464;-2.566;2024-02-14T09:01:10;1.27;;;0.50;;
10491;SDS011;5293;51.464;-2.566;2024-02-14T09:03:37;1.57;;;0.60;;
10491;SDS011;5293;51.464;-2.566;2024-02-14T09:06:03;1.07;;;0.60;;
10491;SDS011;5293;51.464;-2.566;2024-02-14T09:08:29;0.70;;;0.40;;
10491;SDS011;5293;51.464;-2.566;2024-02-14T09:10:56;1.23;;;0.67;;
10491;SDS011;5293;51.464;-2.566;2024-02-14T09:13:24;0.87;;;0.30;;
10491;SDS011;5293;51.464;-2.566;2024-02-14T09:15:50;1.52;;;0.50;;
10491;SDS011;5293;51.464;-2.566;2024-02-14T09:18:18;0.53;;;0.40;;
10491;SDS011;5293;51.464;-2.566;2024-02-14T09:20:44;0.73;;;0.43;;
10491;SDS011;5293;51.464;-2.566;2024-02-14T09:23:11;2.43;;;0.70;;
10491;SDS011;5293;51.464;-2.566;2024-02-14T09:25:39;0.70;;;0.60;;
10491;SDS011;5293;51.464;-2.566;2024-02-14T09:28:05;0.83;;;0.47;;
10491;SDS011;5293;51.464;-2.566;2024-02-14T09:30:32;2.30;;;0.90;;
10491;SDS011;5293;51.464;-2.566;2024-02-14T09:32:58;3.07;;;0.77;;
10491;SDS011;5293;51.464;-2.566;2024-02-14T09:35:24;0.60;;;0.40;;
10491;SDS011;5293;51.464;-2.566;2024-02-14T09:37:50;0.60;;;0.60;;
10491;SDS011;5293;51.464;-2.566;2024-02-14T09:40:16;0.60;;;0.60;;
10491;SDS011;5293;51.464;-2.566;2024-02-14T09:42:45;1.40;;;0.30;;
10491;SDS011;5293;51.464;-2.566;2024-02-14T09:45:17;0.60;;;0.60;;
10491;SDS011;5293;51.464;-2.566;2024-02-14T09:47:43;1.90;;;0.80;;
10491;SDS011;5293;51.464;-2.566;2024-02-14T09:50:10;1.17;;;0.50;;
10491;SDS011;5293;51.464;-2.566;2024-02-14T09:52:38;0.77;;;0.57;;
10491;SDS011;5293;51.464;-2.566;2024-02-14T09:55:03;0.57;;;0.57;;
10491;SDS011;5293;51.464;-2.566;2024-02-14T09:57:32;2.23;;;0.50;;
10491;SDS011;5293;51.464;-2.566;2024-02-14T09:59:58;1.13;;;0.50;;
10491;SDS011;5293;51.464;-2.566;2024-02-14T10:02:26;0.40;;;0.40;;
10491;SDS011;5293;51.464;-2.566;2024-02-14T10:04:51;1.60;;;0.50;;
10491;SDS011;5293;51.464;-2.566;2024-02-14T10:07:17;0.97;;;0.60;;
10491;SDS011;5293;51.464;-2.566;2024-02-14T10:09:44;1.83;;;0.93;;
10491;SDS011;5293;51.464;-2.566;2024-02-14T10:12:10;0.50;;;0.50;;
10491;SDS011;5293;51.464;-2.566;2024-02-14T10:14:35;0.80;;;0.60;;
10491;SDS011;5293;51.464;-2.566;2024-02-14T10:17:04;1.27;;;0.70;;
10491;SDS011;5293;51.464;-2.566;2024-02-14T10:19:29;0.80;;;0.80;;
10491;SDS011;5293;51.464;-2.566;2024-02-14T10:21:56;1.33;;;0.50;;
10491;SDS011;5293;51.464;-2.566;2024-02-14T10:24:24;0.60;;;0.60;;
10491;SDS011;5293;51.464;-2.566;2024-02-14T10:26:51;1.23;;;0.67;;
10491;SDS011;5293;51.464;-2.566;2024-02-14T10:29:18;2.20;;;0.50;;
10491;SDS011;5293;51.464;-2.566;2024-02-14T10:31:45;1.37;;;0.60;;
10491;SDS011;5293;51.464;-2.566;2024-02-14T10:34:11;0.60;;;0.50;;
10491;SDS011;5293;51.464;-2.566;2024-02-14T10:36:37;2.47;;;0.67;;
10491;SDS011;5293;51.464;-2.566;2024-02-14T10:39:06;0.67;;;0.53;;
10491;SDS011;5293;51.464;-2.566;2024-02-14T10:41:40;1.00;;;0.70;;
10491;SDS011;5293;51.464;-2.566;2024-02-14T10:44:06;1.23;;;0.77;;
10491;SDS011;5293;51.464;-2.566;2024-02-14T10:46:33;0.97;;;0.50;;
10491;SDS011;5293;51.464;-2.566;2024-02-14T10:49:05;1.20;;;0.90;;
10491;SDS011;5293;51.464;-2.566;2024-02-14T10:51:36;1.20;;;0.90;;
10491;SDS011;5293;51.464;-2.566;2024-02-14T10:54:12;1.13;;;0.70;;
10491;SDS011;5293;51.464;-2.566;2024-02-14T10:56:40;0.93;;;0.60;;
10491;SDS011;5293;51.464;-2.566;2024-02-14T10:59:10;1.80;;;0.60;;
10491;SDS011;5293;51.464;-2.566;2024-02-14T11:01:39;7.70;;;2.17;;
10491;SDS011;5293;51.464;-2.566;2024-02-14T11:04:06;1.27;;;0.70;;
10491;SDS011;5293;51.464;-2.566;2024-02-14T11:06:32;0.90;;;0.80;;
10491;SDS011;5293;51.464;-2.566;2024-02-14T11:09:11;2.27;;;0.80;;
10491;SDS011;5293;51.464;-2.566;2024-02-14T11:11:38;3.03;;;0.67;;
10491;SDS011;5293;51.464;-2.566;2024-02-14T11:14:03;1.27;;;0.60;;
10491;SDS011;5293;51.464;-2.566;2024-02-14T11:16:30;2.77;;;0.70;;
10491;SDS011;5293;51.464;-2.566;2024-02-14T11:19:07;2.60;;;0.70;;
10491;SDS011;5293;51.464;-2.566;2024-02-14T11:21:46;2.00;;;0.80;;
10491;SDS011;5293;51.464;-2.566;2024-02-14T11:24:13;1.20;;;0.70;;
10491;SDS011;5293;51.464;-2.566;2024-02-14T11:29:15;2.33;;;0.80;;
10491;SDS011;5293;51.464;-2.566;2024-02-14T11:31:41;2.30;;;1.13;;
10491;SDS011;5293;51.464;-2.566;2024-02-14T11:34:08;0.60;;;0.60;;
10491;SDS011;5293;51.464;-2.566;2024-02-14T11:36:37;4.43;;;0.80;;
10491;SDS011;5293;51.464;-2.566;2024-02-14T11:39:04;1.13;;;0.73;;
10491;SDS011;5293;51.464;-2.566;2024-02-14T11:41:35;2.20;;;0.93;;
10491;SDS011;5293;51.464;-2.566;2024-02-14T11:44:03;2.37;;;1.03;;
10491;SDS011;5293;51.464;-2.566;2024-02-14T11:46:33;3.73;;;1.23;;
10491;SDS011;5293;51.464;-2.566;2024-02-14T11:49:00;1.97;;;1.27;;
10491;SDS011;5293;51.464;-2.566;2024-02-14T11:51:28;7.37;;;1.50;;
10491;SDS011;5293;51.464;-2.566;2024-02-14T11:53:55;1.70;;;1.10;;
10491;SDS011;5293;51.464;-2.566;2024-02-14T11:56:35;2.77;;;0.90;;
10491;SDS011;5293;51.464;-2.566;2024-02-14T11:59:05;2.83;;;1.00;;
10491;SDS011;5293;51.464;-2.566;2024-02-14T12:01:35;2.33;;;1.20;;
10491;SDS011;5293;51.464;-2.566;2024-02-14T12:04:03;2.03;;;1.00;;
10491;SDS011;5293;51.464;-2.566;2024-02-14T12:06:32;2.30;;;0.80;;
10491;SDS011;5293;51.464;-2.566;2024-02-14T12:09:00;1.83;;;1.03;;
10491;SDS011;5293;51.464;-2.566;2024-02-14T12:11:30;1.50;;;1.00;;
10491;SDS011;5293;51.464;-2.566;2024-02-14T12:14:00;1.73;;;1.00;;
10491;SDS011;5293;51.464;-2.566;2024-02-14T12:16:27;2.73;;;0.80;;
10491;SDS011;5293;51.464;-2.566;2024-02-14T12:19:09;1.20;;;0.93;;
10491;SDS011;5293;51.464;-2.566;2024-02-14T12:21:40;1.90;;;1.10;;
10491;SDS011;5293;51.464;-2.566;2024-02-14T12:24:11;3.67;;;1.03;;
10491;SDS011;5293;51.464;-2.566;2024-02-14T12:26:39;4.50;;;1.37;;
10491;SDS011;5293;51.464;-2.566;2024-02-14T12:29:06;1.57;;;0.70;;
10491;SDS011;5293;51.464;-2.566;2024-02-14T12:31:33;4.70;;;1.00;;
10491;SDS011;5293;51.464;-2.566;2024-02-14T12:34:01;1.57;;;1.10;;
10491;SDS011;5293;51.464;-2.566;2024-02-14T12:36:29;4.93;;;1.53;;
10491;SDS011;5293;51.464;-2.566;2024-02-14T12:38:58;1.57;;;1.10;;
10491;SDS011;5293;51.464;-2.566;2024-02-14T12:41:27;3.33;;;1.00;;
10491;SDS011;5293;51.464;-2.566;2024-02-14T12:43:55;3.30;;;0.83;;
10491;SDS011;5293;51.464;-2.566;2024-02-14T12:46:21;1.37;;;1.00;;
10491;SDS011;5293;51.464;-2.566;2024-02-14T12:48:47;2.40;;;1.07;;
10491;SDS011;5293;51.464;-2.566;2024-02-14T12:51:15;5.53;;;1.60;;
10491;SDS011;5293;51.464;-2.566;2024-02-14T12:53:41;3.17;;;1.03;;
10491;SDS011;5293;51.464;-2.566;2024-02-14T12:56:07;2.07;;;1.00;;
10491;SDS011;5293;51.464;-2.566;2024-02-14T12:58:33;4.20;;;1.00;;
10491;SDS011;5293;51.464;-2.566;2024-02-14T13:00:59;4.67;;;1.17;;
10491;SDS011;5293;51.464;-2.566;2024-02-14T13:03:26;2.40;;;1.20;;
10491;SDS011;5293;51.464;-2.566;2024-02-14T13:05:52;1.93;;;1.00;;
10491;SDS011;5293;51.464;-2.566;2024-02-14T13:08:19;3.50;;;1.10;;
10491;SDS011;5293;51.464;-2.566;2024-02-14T13:10:45;3.07;;;0.97;;
10491;SDS011;5293;51.464;-2.566;2024-02-14T13:13:11;2.67;;;1.10;;
10491;SDS011;5293;51.464;-2.566;2024-02-14T13:15:37;4.63;;;1.60;;
10491;SDS011;5293;51.464;-2.566;2024-02-14T13:18:03;2.07;;;1.20;;
10491;SDS011;5293;51.464;-2.566;2024-02-14T13:20:28;4.57;;;1.37;;
10491;SDS011;5293;51.464;-2.566;2024-02-14T13:22:55;3.90;;;1.37;;
10491;SDS011;5293;51.464;-2.566;2024-02-14T13:25:20;2.03;;;1.23;;
10491;SDS011;5293;51.464;-2.566;2024-02-14T13:27:46;6.40;;;1.40;;
10491;SDS011;5293;51.464;-2.566;2024-02-14T13:30:12;3.33;;;1.70;;
10491;SDS011;5293;51.464;-2.566;2024-02-14T13:32:38;1.83;;;1.10;;
10491;SDS011;5293;51.464;-2.566;2024-02-14T13:35:04;3.27;;;1.50;;
10491;SDS011;5293;51.464;-2.566;2024-02-14T13:37:31;5.73;;;1.10;;
10491;SDS011;5293;51.464;-2.566;2024-02-14T13:39:57;6.03;;;1.47;;
10491;SDS011;5293;51.464;-2.566;2024-02-14T13:42:22;7.03;;;1.30;;
10491;SDS011;5293;51.464;-2.566;2024-02-14T13:44:48;4.03;;;1.20;;
10491;SDS011;5293;51.464;-2.566;2024-02-14T13:47:17;5.30;;;1.43;;
10491;SDS011;5293;51.464;-2.566;2024-02-14T13:49:44;4.23;;;1.33;;
10491;SDS011;5293;51.464;-2.566;2024-02-14T13:52:09;6.37;;;1.37;;
10491;SDS011;5293;51.464;-2.566;2024-02-14T13:54:35;3.97;;;1.13;;
10491;SDS011;5293;51.464;-2.566;2024-02-14T13:57:01;4.43;;;1.40;;
10491;SDS011;5293;51.464;-2.566;2024-02-14T13:59:27;4.97;;;1.10;;
10491;SDS011;5293;51.464;-2.566;2024-02-14T14:01:54;2.73;;;1.47;;
10491;SDS011;5293;51.464;-2.566;2024-02-14T14:04:20;6.17;;;1.57;;
10491;SDS011;5293;51.464;-2.566;2024-02-14T14:06:46;6.37;;;1.63;;
10491;SDS011;5293;51.464;-2.566;2024-02-14T14:09:12;8.30;;;2.10;;
10491;SDS011;5293;51.464;-2.566;2024-02-14T14:11:38;7.33;;;2.53;;
10491;SDS011;5293;51.464;-2.566;2024-02-14T14:14:04;5.63;;;1.77;;
10491;SDS011;5293;51.464;-2.566;2024-02-14T14:16:30;4.27;;;1.93;;
10491;SDS011;5293;51.464;-2.566;2024-02-14T14:18:58;11.70;;;1.93;;
10491;SDS011;5293;51.464;-2.566;2024-02-14T14:21:24;6.67;;;1.70;;
10491;SDS011;5293;51.464;-2.566;2024-02-14T14:23:49;7.23;;;1.50;;
10491;SDS011;5293;51.464;-2.566;2024-02-14T14:26:15;11.93;;;7.83;;
10491;SDS011;5293;51.464;-2.566;2024-02-14T14:28:41;4.17;;;3.30;;
10491;SDS011;5293;51.464;-2.566;2024-02-14T14:31:07;7.73;;;1.90;;
10491;SDS011;5293;51.464;-2.566;2024-02-14T14:33:36;6.07;;;1.73;;
10491;SDS011;5293;51.464;-2.566;2024-02-14T14:36:05;4.67;;;1.87;;
10491;SDS011;5293;51.464;-2.566;2024-02-14T14:38:31;4.30;;;1.53;;
10491;SDS011;5293;51.464;-2.566;2024-02-14T14:40:57;4.63;;;2.00;;
10491;SDS011;5293;51.464;-2.566;2024-02-14T14:43:24;6.40;;;1.80;;
10491;SDS011;5293;51.464;-2.566;2024-02-14T14:45:50;4.60;;;1.57;;